createdAt,value
2024-02-03T00:01:55.570Z,62981.25
2024-02-03T00:08:17.209Z,62861.27
2024-02-03T00:10:44.825Z,62982.71
2024-02-03T00:13:12.465Z,62982.52
2024-02-03T00:15:40.082Z,62991.89
2024-02-03T00:18:07.855Z,62977.41
2024-02-03T00:20:35.441Z,62990.56
2024-02-03T00:23:03.078Z,62986.93
2024-02-03T00:25:30.669Z,62970.62
2024-02-03T00:27:58.237Z,62990.10
2024-02-03T00:30:25.857Z,62991.89
2024-02-03T00:32:53.524Z,62971.52
2024-02-03T00:35:21.258Z,62986.29
2024-02-03T00:37:49.026Z,62986.73
2024-02-03T00:40:16.656Z,62976.69
2024-02-03T00:42:44.874Z,62965.18
2024-02-03T00:45:12.682Z,62976.44
2024-02-03T00:47:40.439Z,62972.88
2024-02-03T00:50:15.944Z,62970.62
2024-02-03T00:56:02.174Z,62842.51
2024-02-03T00:58:30.784Z,62978.01
2024-02-03T01:00:58.399Z,62982.50
2024-02-03T01:03:28.904Z,62984.52
2024-02-03T01:05:56.590Z,62971.36
2024-02-03T01:08:24.809Z,62971.29
2024-02-03T01:10:52.380Z,62961.09
2024-02-03T01:13:20.000Z,62968.58
2024-02-03T01:15:47.943Z,62970.79
2024-02-03T01:18:15.840Z,62975.32
2024-02-03T01:20:43.444Z,62964.50
2024-02-03T01:23:10.965Z,62979.31
2024-02-03T01:25:38.554Z,62975.35
2024-02-03T01:28:06.217Z,62981.59
2024-02-03T01:30:33.975Z,62976.32
2024-02-03T01:33:01.670Z,62974.19
2024-02-03T01:35:31.439Z,62989.03
2024-02-03T01:37:59.320Z,62989.89
2024-02-03T01:40:29.172Z,62976.99
2024-02-03T01:43:03.270Z,62991.21
2024-02-03T01:45:30.918Z,62982.77
2024-02-03T01:47:58.614Z,62988.70
2024-02-03T01:50:26.625Z,62983.70
2024-02-03T01:52:54.295Z,62979.52
2024-02-03T01:55:21.895Z,62985.10
2024-02-03T01:57:49.543Z,62989.96
2024-02-03T02:00:17.553Z,62992.39
2024-02-03T02:02:45.741Z,63003.20
2024-02-03T02:05:13.477Z,63007.80
2024-02-03T02:07:47.256Z,62994.57
2024-02-03T02:10:15.035Z,62997.96
2024-02-03T02:12:42.674Z,63022.66
2024-02-03T02:15:10.662Z,63027.85
2024-02-03T02:17:38.297Z,63000.66
2024-02-03T02:20:12.105Z,63006.79
2024-02-03T02:22:39.735Z,63007.30
2024-02-03T02:25:07.553Z,63009.06
2024-02-03T02:27:35.353Z,63006.71
2024-02-03T02:30:03.042Z,63035.14
2024-02-03T02:32:30.679Z,63029.69
2024-02-03T02:34:58.358Z,63020.63
2024-02-03T02:37:26.284Z,63013.89
2024-02-03T02:39:54.313Z,63059.21
2024-02-03T02:42:21.995Z,63051.98
2024-02-03T02:44:49.892Z,63044.02
2024-02-03T02:47:17.902Z,63022.12
2024-02-03T02:49:45.612Z,63010.79
2024-02-03T02:52:13.309Z,63030.27
2024-02-03T02:54:41.107Z,63011.28
2024-02-03T02:57:08.771Z,63026.48
2024-02-03T02:59:36.412Z,63036.98
2024-02-03T03:02:04.779Z,63009.40
2024-02-03T03:04:33.118Z,63014.80
2024-02-03T03:07:00.799Z,63017.91
2024-02-03T03:09:28.463Z,63027.55
2024-02-03T03:11:56.032Z,63015.60
2024-02-03T03:14:23.653Z,63026.38
2024-02-03T03:16:51.326Z,63023.88
2024-02-03T03:19:19.077Z,63018.25
2024-02-03T03:21:46.908Z,63015.71
2024-02-03T03:24:14.718Z,63020.52
2024-02-03T03:26:43.931Z,63027.59
2024-02-03T03:29:16.320Z,63027.41
2024-02-03T03:31:44.535Z,63023.40
2024-02-03T03:34:12.288Z,63044.14
2024-02-03T03:36:40.135Z,63040.92
2024-02-03T03:39:10.306Z,63054.96
2024-02-03T03:41:38.009Z,63055.34
2024-02-03T03:44:06.046Z,63013.91
2024-02-03T03:46:33.650Z,63041.09
2024-02-03T03:49:01.252Z,63039.02
2024-02-03T03:51:29.062Z,63059.29
2024-02-03T03:53:56.654Z,63039.43
2024-02-03T03:56:24.193Z,63023.79
2024-02-03T03:58:52.040Z,63037.18
2024-02-03T04:01:19.788Z,63027.09
2024-02-03T04:03:47.991Z,63027.98
2024-02-03T04:06:15.819Z,63017.06
2024-02-03T04:08:43.352Z,63014.63
2024-02-03T04:11:11.023Z,63030.61
2024-02-03T04:13:40.521Z,63008.99
2024-02-03T04:16:08.289Z,63005.67
2024-02-03T04:18:35.970Z,62995.13
2024-02-03T04:21:04.070Z,62978.34
2024-02-03T04:23:31.587Z,62993.82
2024-02-03T04:25:59.383Z,62977.16
2024-02-03T04:28:26.906Z,62989.79
2024-02-03T04:30:56.547Z,62990.34
2024-02-03T04:33:24.664Z,62976.30
2024-02-03T04:35:52.580Z,62985.66
2024-02-03T04:38:20.165Z,62955.80
2024-02-03T04:40:47.699Z,62982.35
2024-02-03T04:43:15.749Z,62965.95
2024-02-03T04:45:43.355Z,62986.81
2024-02-03T04:48:11.196Z,62975.18
2024-02-03T04:50:38.785Z,62978.93
2024-02-03T04:53:06.377Z,62971.18
2024-02-03T04:55:33.945Z,62956.90
2024-02-03T04:58:01.733Z,62967.46
2024-02-03T05:00:29.376Z,62967.47
2024-02-03T05:02:57.012Z,62964.47
2024-02-03T05:05:24.590Z,62970.24
2024-02-03T05:07:52.410Z,62992.66
2024-02-03T05:10:19.983Z,62979.64
2024-02-03T05:12:47.611Z,62985.17
2024-02-03T05:15:15.359Z,62988.02
2024-02-03T05:17:43.016Z,62965.23
2024-02-03T05:20:11.265Z,62958.27
2024-02-03T05:22:38.746Z,62966.86
2024-02-03T05:25:06.608Z,62959.33
2024-02-03T05:27:34.193Z,62968.24
2024-02-03T05:30:02.098Z,62964.68
2024-02-03T05:32:30.988Z,62964.55
2024-02-03T05:34:58.564Z,62960.70
2024-02-03T05:37:26.129Z,62956.13
2024-02-03T05:39:53.812Z,62961.26
2024-02-03T05:42:23.756Z,62983.74
2024-02-03T05:44:51.720Z,62985.28
2024-02-03T05:47:19.277Z,62965.67
2024-02-03T05:49:46.968Z,62953.64
2024-02-03T05:52:14.519Z,62955.45
2024-02-03T05:54:42.030Z,62963.43
2024-02-03T05:57:13.580Z,62960.55
2024-02-03T05:59:51.286Z,62969.77
2024-02-03T06:02:19.487Z,62968.13
2024-02-03T06:04:48.262Z,62982.82
2024-02-03T06:07:17.414Z,62970.87
2024-02-03T06:09:45.231Z,62964.54
2024-02-03T06:12:12.920Z,62989.46
2024-02-03T06:14:42.266Z,62980.21
2024-02-03T06:17:13.213Z,62972.79
2024-02-03T06:19:43.883Z,62986.22
2024-02-03T06:22:12.297Z,62974.43
2024-02-03T06:24:39.857Z,62974.29
2024-02-03T06:27:07.423Z,62979.63
2024-02-03T06:29:35.285Z,62983.76
2024-02-03T06:32:03.393Z,62988.82
2024-02-03T06:34:31.319Z,62973.11
2024-02-03T06:36:58.989Z,62974.30
2024-02-03T06:39:26.539Z,62984.88
2024-02-03T06:41:54.474Z,62977.68
2024-02-03T06:44:22.025Z,62974.50
2024-02-03T06:46:49.511Z,62984.70
2024-02-03T06:49:17.176Z,62969.53
2024-02-03T06:51:44.935Z,62963.71
2024-02-03T06:54:12.635Z,62981.00
2024-02-03T06:56:40.166Z,62976.39
2024-02-03T06:59:07.871Z,62987.47
2024-02-03T07:01:35.531Z,62978.44
2024-02-03T07:04:03.375Z,62984.69
2024-02-03T07:06:31.155Z,62986.01
2024-02-03T07:08:58.701Z,62988.15
2024-02-03T07:11:26.182Z,62992.88
2024-02-03T07:13:53.864Z,63006.11
2024-02-03T07:16:21.543Z,62991.20
2024-02-03T07:18:49.113Z,62979.77
2024-02-03T07:21:16.796Z,62989.73
2024-02-03T07:23:44.499Z,62992.93
2024-02-03T07:26:12.119Z,62995.09
2024-02-03T07:28:39.732Z,62986.66
2024-02-03T07:31:07.399Z,63003.20
2024-02-03T07:33:35.232Z,62996.54
2024-02-03T07:36:03.017Z,62986.67
2024-02-03T07:38:30.575Z,63004.04
2024-02-03T07:40:58.247Z,63018.37
2024-02-03T07:43:25.693Z,63009.86
2024-02-03T07:45:53.318Z,63001.88
2024-02-03T07:48:21.212Z,63005.57
2024-02-03T07:50:48.902Z,63015.32
2024-02-03T07:53:16.470Z,63014.17
2024-02-03T07:55:44.110Z,62990.14
2024-02-03T07:58:11.647Z,63020.51
2024-02-03T08:00:39.327Z,63008.86
2024-02-03T08:03:06.842Z,63015.90
2024-02-03T08:05:34.485Z,63003.34
2024-02-03T08:08:02.893Z,63003.42
2024-02-03T08:10:30.493Z,62998.45
2024-02-03T08:12:58.114Z,62986.95
2024-02-03T08:15:26.840Z,63029.05
2024-02-03T08:17:54.484Z,63044.52
2024-02-03T08:20:22.065Z,63015.88
2024-02-03T08:22:49.587Z,63014.08
2024-02-03T08:25:17.396Z,63008.95
2024-02-03T08:27:45.073Z,63014.57
2024-02-03T08:30:13.511Z,63011.97
2024-02-03T08:32:41.039Z,63020.98
2024-02-03T08:37:39.350Z,63015.99
2024-02-03T08:40:07.631Z,63029.63
2024-02-03T08:42:35.239Z,63012.42
2024-02-03T08:45:03.212Z,63034.31
2024-02-03T08:47:30.760Z,63023.49
2024-02-03T08:49:58.375Z,63024.34
2024-02-03T08:52:25.903Z,63077.04
2024-02-03T08:54:53.643Z,63055.82
2024-02-03T08:57:21.253Z,63038.70
2024-02-03T08:59:51.711Z,63052.57
2024-02-03T09:02:19.265Z,63038.41
2024-02-03T09:04:47.054Z,63027.55
2024-02-03T09:07:14.697Z,63028.61
2024-02-03T09:09:43.723Z,63039.15
2024-02-03T09:12:11.593Z,63051.42
2024-02-03T09:14:39.402Z,63045.08
2024-02-03T09:17:07.328Z,63076.16
2024-02-03T09:19:35.286Z,63062.50
2024-02-03T09:22:03.134Z,63079.34
2024-02-03T09:24:31.002Z,63059.74
2024-02-03T09:26:58.764Z,63100.05
2024-02-03T09:29:26.413Z,63099.40
2024-02-03T09:31:55.986Z,63084.81
2024-02-03T09:34:24.713Z,63077.95
2024-02-03T09:39:23.338Z,63091.99
2024-02-03T09:41:50.935Z,63092.50
2024-02-03T09:44:18.469Z,63089.85
2024-02-03T09:46:46.099Z,63083.07
2024-02-03T09:49:13.967Z,63101.09
2024-02-03T09:51:41.661Z,63105.09
2024-02-03T09:54:09.204Z,63101.43
2024-02-03T09:56:36.774Z,63094.34
2024-02-03T09:59:04.346Z,63106.27
2024-02-03T10:01:32.076Z,63140.06
2024-02-03T10:03:59.884Z,63110.92
2024-02-03T10:06:27.776Z,63100.45
2024-02-03T10:08:55.736Z,63151.51
2024-02-03T10:11:23.622Z,63121.23
2024-02-03T10:14:02.105Z,63113.76
2024-02-03T10:16:29.699Z,63107.77
2024-02-03T10:18:57.367Z,63121.58
2024-02-03T10:21:25.234Z,63131.65
2024-02-03T10:23:53.158Z,63124.68
2024-02-03T10:26:20.885Z,63148.84
2024-02-03T10:28:49.174Z,63132.17
2024-02-03T10:31:16.756Z,63155.38
2024-02-03T10:33:47.507Z,63123.73
2024-02-03T10:36:15.332Z,63122.48
2024-02-03T10:38:42.888Z,63135.01
2024-02-03T10:41:11.443Z,63137.21
2024-02-03T10:43:39.119Z,63153.69
2024-02-03T10:46:09.670Z,63156.09
2024-02-03T10:48:38.109Z,63152.08
2024-02-03T10:51:17.537Z,63149.16
2024-02-03T10:54:06.345Z,63143.92
2024-02-03T10:56:34.970Z,63145.11
2024-02-03T10:59:07.063Z,63174.50
2024-02-03T11:01:35.919Z,63187.65
2024-02-03T11:04:03.884Z,63164.57
2024-02-03T11:06:32.758Z,63157.36
2024-02-03T11:09:24.197Z,63156.77
2024-02-03T11:11:54.940Z,63155.50
2024-02-03T11:14:25.780Z,63161.48
2024-02-03T11:17:02.876Z,63174.71
2024-02-03T11:19:32.296Z,63176.38
2024-02-03T11:22:04.566Z,63196.04
2024-02-03T11:24:32.523Z,63166.70
2024-02-03T11:27:04.534Z,63192.51
2024-02-03T11:29:32.645Z,63194.44
2024-02-03T11:32:02.060Z,63190.18
2024-02-03T11:34:29.825Z,63197.46
2024-02-03T11:36:58.069Z,63205.16
2024-02-03T11:39:38.464Z,63198.29
2024-02-03T11:42:07.730Z,63193.48
2024-02-03T11:44:44.477Z,63189.70
2024-02-03T11:47:12.242Z,63207.22
2024-02-03T11:49:39.820Z,63208.09
2024-02-03T11:52:07.615Z,63194.93
2024-02-03T11:54:35.249Z,63205.62
2024-02-03T11:57:03.066Z,63226.01
2024-02-03T11:59:31.059Z,63218.57
2024-02-03T12:01:59.528Z,63232.18
2024-02-03T12:04:27.890Z,63237.57
2024-02-03T12:06:56.326Z,63221.62
2024-02-03T12:09:24.322Z,63225.07
2024-02-03T12:11:53.715Z,63227.64
2024-02-03T12:14:22.118Z,63230.22
2024-02-03T12:16:50.403Z,63235.51
2024-02-03T12:19:18.449Z,63242.18
2024-02-03T12:21:48.818Z,63229.82
2024-02-03T12:24:16.474Z,63238.86
2024-02-03T12:26:44.120Z,63243.27
2024-02-03T12:29:13.252Z,63227.45
2024-02-03T12:31:41.401Z,63241.28
2024-02-03T12:34:09.198Z,63237.66
2024-02-03T12:36:37.022Z,63239.68
2024-02-03T12:39:04.896Z,63243.53
2024-02-03T12:41:32.661Z,63236.64
2024-02-03T12:44:00.230Z,63240.51
2024-02-03T12:46:28.118Z,63236.18
2024-02-03T12:48:55.810Z,63237.01
2024-02-03T12:51:23.481Z,63244.59
2024-02-03T12:53:51.573Z,63248.46
2024-02-03T12:56:19.504Z,63248.20
2024-02-03T12:58:49.226Z,63255.81
2024-02-03T13:01:17.797Z,63262.20
2024-02-03T13:03:45.563Z,63256.11
2024-02-03T13:06:13.902Z,63266.41
2024-02-03T13:08:41.591Z,63271.40
2024-02-03T13:11:09.206Z,63264.24
2024-02-03T13:13:37.194Z,63271.42
2024-02-03T13:16:05.466Z,63272.52
2024-02-03T13:18:33.841Z,63271.09
2024-02-03T13:21:02.294Z,63259.13
2024-02-03T13:23:29.955Z,63270.49
2024-02-03T13:25:57.599Z,63273.00
2024-02-03T13:28:25.334Z,63270.29
2024-02-03T13:30:53.743Z,63267.52
2024-02-03T13:33:21.473Z,63286.02
2024-02-03T13:35:49.144Z,63286.79
2024-02-03T13:38:16.907Z,63287.41
2024-02-03T13:40:44.553Z,63289.97
2024-02-03T13:43:12.233Z,63293.07
2024-02-03T13:45:40.315Z,63290.68
2024-02-03T13:48:08.195Z,63306.04
2024-02-03T13:50:35.831Z,63302.59
2024-02-03T13:53:03.725Z,63289.18
2024-02-03T13:55:31.510Z,63315.91
2024-02-03T13:57:59.361Z,63308.24
2024-02-03T14:00:27.600Z,63332.21
2024-02-03T14:02:55.371Z,63326.43
2024-02-03T14:05:23.560Z,63321.93
2024-02-03T14:07:51.553Z,63327.46
2024-02-03T14:10:19.934Z,63337.98
2024-02-03T14:12:47.791Z,63336.48
2024-02-03T14:15:15.662Z,63343.63
2024-02-03T14:17:43.547Z,63347.05
2024-02-03T14:20:11.293Z,63339.39
2024-02-03T14:22:38.931Z,63347.67
2024-02-03T14:25:07.290Z,63359.99
2024-02-03T14:27:36.337Z,63337.96
2024-02-03T14:30:07.097Z,63342.88
2024-02-03T14:32:34.743Z,63345.42
2024-02-03T14:35:02.807Z,63354.20
2024-02-03T14:37:30.484Z,63349.19
2024-02-03T14:39:58.418Z,63354.52
2024-02-03T14:42:25.943Z,63355.93
2024-02-03T14:44:53.744Z,63369.12
2024-02-03T14:47:21.711Z,63368.82
2024-02-03T14:49:49.425Z,63358.04
2024-02-03T14:52:19.949Z,63388.64
2024-02-03T14:54:47.544Z,63367.51
2024-02-03T14:57:15.647Z,63381.37
2024-02-03T14:59:43.235Z,63382.27
2024-02-03T15:02:10.874Z,63378.81
2024-02-03T15:04:38.767Z,63386.97
2024-02-03T15:07:06.508Z,63382.58
2024-02-03T15:09:34.275Z,63368.79
2024-02-03T15:12:02.461Z,63377.64
2024-02-03T15:14:30.095Z,63389.44
2024-02-03T15:16:57.869Z,63379.35
2024-02-03T15:19:25.547Z,63399.24
2024-02-03T15:21:53.630Z,63390.11
2024-02-03T15:24:21.377Z,63394.08
2024-02-03T15:26:49.165Z,63399.61
2024-02-03T15:29:16.787Z,63384.20
2024-02-03T15:31:44.383Z,63388.92
2024-02-03T15:34:12.065Z,63395.54
2024-02-03T15:36:39.882Z,63410.21
2024-02-03T15:39:07.580Z,63392.11
2024-02-03T15:41:35.483Z,63393.55
2024-02-03T15:44:04.675Z,63399.14
2024-02-03T15:46:39.897Z,63399.20
2024-02-03T15:49:12.815Z,63412.69
2024-02-03T15:51:40.778Z,63408.31
2024-02-03T15:54:08.852Z,63407.88
2024-02-03T15:56:37.079Z,63404.72
2024-02-03T15:59:04.751Z,63417.44
2024-02-03T16:01:32.505Z,63403.13
2024-02-03T16:04:00.243Z,63420.98
2024-02-03T16:06:28.173Z,63422.23
2024-02-03T16:08:55.945Z,63432.61
2024-02-03T16:11:23.653Z,63432.01
2024-02-03T16:13:51.185Z,63425.24
2024-02-03T16:16:20.282Z,63434.45
2024-02-03T16:18:48.338Z,63436.15
2024-02-03T16:21:16.430Z,63423.26
2024-02-03T16:23:44.212Z,63431.77
2024-02-03T16:26:12.169Z,63432.91
2024-02-03T16:28:41.132Z,63442.68
2024-02-03T16:31:08.753Z,63438.45
2024-02-03T16:33:36.631Z,63438.67
2024-02-03T16:36:04.560Z,63444.31
2024-02-03T16:38:32.224Z,63427.35
2024-02-03T16:40:59.765Z,63445.64
2024-02-03T16:43:27.330Z,63436.84
2024-02-03T16:45:55.087Z,63438.51
2024-02-03T16:48:23.540Z,63433.45
2024-02-03T16:50:51.805Z,63445.29
2024-02-03T16:53:19.490Z,63431.79
2024-02-03T16:55:47.138Z,63447.60
2024-02-03T16:58:15.014Z,63459.28
2024-02-03T17:00:42.682Z,63451.59
2024-02-03T17:03:11.928Z,63434.44
2024-02-03T17:05:42.042Z,63433.98
2024-02-03T17:08:19.915Z,63453.30
2024-02-03T17:10:48.117Z,63455.95
2024-02-03T17:13:15.705Z,63452.02
2024-02-03T17:15:43.535Z,63454.91
2024-02-03T17:18:11.348Z,63450.99
2024-02-03T17:20:39.146Z,63459.14
2024-02-03T17:23:06.987Z,63458.81
2024-02-03T17:25:37.742Z,63457.46
2024-02-03T17:28:05.645Z,63458.68
2024-02-03T17:30:36.015Z,63465.66
2024-02-03T17:33:04.518Z,63464.68
2024-02-03T17:35:33.608Z,63466.66
2024-02-03T17:38:01.325Z,63458.27
2024-02-03T17:40:31.401Z,63473.77
2024-02-03T17:42:59.139Z,63470.09
2024-02-03T17:45:27.024Z,63468.50
2024-02-03T17:47:55.031Z,63484.73
2024-02-03T17:50:22.916Z,63472.39
2024-02-03T17:52:50.692Z,63479.97
2024-02-03T17:55:18.453Z,63476.45
2024-02-03T17:57:47.252Z,63484.40
2024-02-03T18:00:15.709Z,63480.25
2024-02-03T18:02:44.639Z,63490.81
2024-02-03T18:05:12.717Z,63485.66
2024-02-03T18:07:40.577Z,63497.29
2024-02-03T18:10:08.829Z,63486.62
2024-02-03T18:12:37.025Z,63490.81
2024-02-03T18:15:05.476Z,63483.70
2024-02-03T18:17:33.230Z,63484.57
2024-02-03T18:20:01.010Z,63492.74
2024-02-03T18:22:32.643Z,63495.61
2024-02-03T18:25:00.586Z,63480.66
2024-02-03T18:27:28.408Z,63492.77
2024-02-03T18:29:56.003Z,63477.51
2024-02-03T18:32:23.533Z,63476.56
2024-02-03T18:34:51.510Z,63475.54
2024-02-03T18:37:19.486Z,63486.23
2024-02-03T18:39:53.565Z,63485.65
2024-02-03T18:42:22.147Z,63487.27
2024-02-03T18:44:49.784Z,63475.84
2024-02-03T18:47:17.445Z,63488.89
2024-02-03T18:49:45.184Z,63476.76
2024-02-03T18:52:12.820Z,63474.22
2024-02-03T18:54:43.359Z,63472.70
2024-02-03T18:57:10.982Z,63489.08
2024-02-03T18:59:38.574Z,63474.23
2024-02-03T19:02:06.219Z,63477.88
2024-02-03T19:04:34.231Z,63486.59
2024-02-03T19:07:02.157Z,63480.15
2024-02-03T19:09:32.362Z,63492.41
2024-02-03T19:11:59.992Z,63493.36
2024-02-03T19:14:27.764Z,63473.72
2024-02-03T19:16:58.315Z,63486.89
2024-02-03T19:19:26.106Z,63473.46
2024-02-03T19:21:53.786Z,63478.71
2024-02-03T19:24:21.459Z,63482.01
2024-02-03T19:26:49.023Z,63486.51
2024-02-03T19:29:16.640Z,63487.79
2024-02-03T19:31:44.319Z,63485.86
2024-02-03T19:34:12.033Z,63476.70
2024-02-03T19:36:39.815Z,63483.91
2024-02-03T19:39:08.974Z,63491.52
2024-02-03T19:41:38.375Z,63473.02
2024-02-03T19:44:06.138Z,63469.01
2024-02-03T19:46:35.375Z,63477.71
2024-02-03T19:49:03.763Z,63469.46
2024-02-03T19:51:31.720Z,63495.68
2024-02-03T19:53:59.419Z,63486.19
2024-02-03T19:56:27.027Z,63467.23
2024-02-03T19:58:54.672Z,63469.92
2024-02-03T20:01:22.456Z,63482.97
2024-02-03T20:03:50.511Z,63472.41
2024-02-03T20:06:18.502Z,63485.09
2024-02-03T20:08:46.152Z,63485.59
2024-02-03T20:11:15.574Z,63491.88
2024-02-03T20:13:44.318Z,63477.07
2024-02-03T20:16:12.091Z,63478.66
2024-02-03T20:18:39.906Z,63472.91
2024-02-03T20:21:08.080Z,63492.43
2024-02-03T20:23:36.192Z,63471.36
2024-02-03T20:26:03.990Z,63481.19
2024-02-03T20:28:31.752Z,63472.95
2024-02-03T20:30:59.487Z,63475.52
2024-02-03T20:33:27.498Z,63481.76
2024-02-03T20:35:56.153Z,63482.02
2024-02-03T20:38:24.671Z,63470.68
2024-02-03T20:40:52.662Z,63473.81
2024-02-03T20:43:22.195Z,63480.21
2024-02-03T20:45:51.992Z,63485.47
2024-02-03T20:48:20.451Z,63483.50
2024-02-03T20:50:48.910Z,63472.52
2024-02-03T20:53:17.216Z,63471.80
2024-02-03T20:55:48.285Z,63476.15
2024-02-03T20:58:19.759Z,63481.39
2024-02-03T21:00:48.021Z,63469.18
2024-02-03T21:03:16.650Z,63474.08
2024-02-03T21:05:45.170Z,63467.61
2024-02-03T21:08:13.223Z,63463.56
2024-02-03T21:10:41.285Z,63468.27
2024-02-03T21:13:13.825Z,63458.24
2024-02-03T21:15:43.653Z,63466.81
2024-02-03T21:18:11.667Z,63459.55
2024-02-03T21:20:41.239Z,63465.39
2024-02-03T21:23:09.381Z,63444.28
2024-02-03T21:25:37.462Z,63447.88
2024-02-03T21:28:05.624Z,63450.44
2024-02-03T21:30:33.599Z,63449.11
2024-02-03T21:33:01.605Z,63440.56
2024-02-03T21:35:29.761Z,63441.13
2024-02-03T21:37:58.691Z,63440.32
2024-02-03T21:40:26.345Z,63449.27
2024-02-03T21:42:54.346Z,63449.35
2024-02-03T21:45:22.853Z,63451.24
2024-02-03T21:47:50.711Z,63435.45
2024-02-03T21:50:18.669Z,63448.50
2024-02-03T21:52:49.203Z,63457.82
2024-02-03T21:55:17.255Z,63472.61
2024-02-03T21:57:45.231Z,63455.10
2024-02-03T22:00:13.790Z,63447.91
2024-02-03T22:02:41.613Z,63438.01
2024-02-03T22:05:09.594Z,63448.86
2024-02-03T22:07:37.548Z,63456.97
2024-02-03T22:10:06.216Z,63457.29
2024-02-03T22:12:34.610Z,63452.77
2024-02-03T22:15:05.888Z,63456.60
2024-02-03T22:17:33.807Z,63478.66
2024-02-03T22:20:02.087Z,63470.95
2024-02-03T22:22:30.185Z,63465.32
2024-02-03T22:24:58.003Z,63470.74
2024-02-03T22:27:26.635Z,63467.46
2024-02-03T22:29:54.719Z,63467.08
2024-02-03T22:32:22.664Z,63471.21
2024-02-03T22:34:50.486Z,63477.29
2024-02-03T22:37:18.475Z,63482.86
2024-02-03T22:39:47.909Z,63468.51
2024-02-03T22:42:15.740Z,63476.86
2024-02-03T22:44:43.511Z,63469.52
2024-02-03T22:47:11.690Z,63475.20
2024-02-03T22:49:40.322Z,63468.51
2024-02-03T22:52:08.325Z,63484.90
2024-02-03T22:54:36.418Z,63471.54
2024-02-03T22:57:04.569Z,63478.41
2024-02-03T22:59:32.820Z,63485.94
2024-02-03T23:02:01.254Z,63466.65
2024-02-03T23:04:29.300Z,63475.91
2024-02-03T23:06:57.200Z,63469.67
2024-02-03T23:09:24.941Z,63479.05
2024-02-03T23:11:53.063Z,63487.68
2024-02-03T23:14:20.948Z,63480.05
2024-02-03T23:16:53.712Z,63471.47
2024-02-03T23:19:24.606Z,63476.12
2024-02-03T23:21:52.795Z,63475.75
2024-02-03T23:24:21.248Z,63467.13
2024-02-03T23:26:49.136Z,63482.53
2024-02-03T23:29:17.012Z,63473.04
2024-02-03T23:31:44.945Z,63475.84
2024-02-03T23:34:13.202Z,63465.59
2024-02-03T23:36:41.145Z,63472.19
2024-02-03T23:39:10.963Z,63472.95
2024-02-03T23:41:40.067Z,63470.29
2024-02-03T23:44:08.399Z,63477.60
2024-02-03T23:46:36.767Z,63470.68
2024-02-03T23:49:04.715Z,63475.21
2024-02-03T23:51:33.247Z,63473.42
2024-02-03T23:54:03.348Z,63469.60
2024-02-03T23:56:31.241Z,63460.74
2024-02-03T23:58:58.946Z,63460.29
